Time,TemperatureF,DewpointF,PressureIn,WindDirection,WindDirectionDegrees,WindSpeedMPH,WindSpeedGustMPH,Humidity,HourlyPrecipIn,Conditions,Clouds,dailyrainin,SoftwareType,DateUTC
2013-02-07 00:01:00,44.0,33.0,29.97,WNW,300,4.0,-999.0,64,-99.99,,,-99.99,,2013-02-07 07:01:00,
2013-02-07 00:11:00,43.0,32.0,29.98,WNW,300,3.0,-999.0,65,-99.99,,,-99.99,,2013-02-07 07:11:00,
2013-02-07 00:21:00,43.0,32.0,29.98,WNW,300,3.0,-999.0,65,-99.99,,,-99.99,,2013-02-07 07:21:00,
2013-02-07 00:31:00,44.0,33.0,29.98,WNW,300,3.0,-999.0,64,-99.99,,,-99.99,,2013-02-07 07:31:00,
2013-02-07 00:41:00,44.0,33.0,29.98,WNW,300,3.0,-999.0,64,-99.99,,,-99.99,,2013-02-07 07:41:00,
2013-02-07 00:52:00,44.0,32.0,29.98,WNW,300,3.0,-999.0,63,-99.99,,,-99.99,,2013-02-07 07:52:00,
2013-02-07 01:01:00,44.0,32.0,29.98,WNW,300,3.0,-999.0,63,-99.99,,,-99.99,,2013-02-07 08:01:00,
2013-02-07 01:11:00,44.0,32.0,29.98,WNW,300,3.0,-999.0,63,-99.99,,,-99.99,,2013-02-07 08:11:00,
2013-02-07 01:21:00,43.0,32.0,29.98,WNW,300,3.0,-999.0,64,-99.99,,,-99.99,,2013-02-07 08:21:00,
2013-02-07 01:31:00,42.0,31.0,29.99,WNW,299,3.0,-999.0,66,-99.99,,,-99.99,,2013-02-07 08:31:00,
2013-02-07 01:41:00,42.0,31.0,29.99,WNW,299,3.0,-999.0,66,-99.99,,,-99.99,,2013-02-07 08:41:00,
2013-02-07 01:52:00,42.0,31.0,29.99,WNW,299,3.0,-999.0,66,-99.99,,,-99.99,,2013-02-07 08:52:00,
2013-02-07 02:01:00,42.0,32.0,29.99,WNW,299,3.0,-999.0,67,-99.99,,,-99.99,,2013-02-07 09:01:00,
2013-02-07 02:11:00,42.0,32.0,29.99,WNW,299,3.0,-999.0,67,-99.99,,,-99.99,,2013-02-07 09:11:00,
2013-02-07 02:21:00,41.0,31.0,29.99,WNW,299,0.0,-999.0,68,-99.99,,,-99.99,,2013-02-07 09:21:00,
2013-02-07 02:31:00,41.0,31.0,29.99,WNW,299,0.0,-999.0,68,-99.99,,,-99.99,,2013-02-07 09:31:00,
2013-02-07 02:41:00,41.0,31.0,29.99,WNW,299,0.0,-999.0,68,-99.99,,,-99.99,,2013-02-07 09:41:00,
2013-02-07 02:52:00,40.0,31.0,29.99,WNW,299,0.0,-999.0,69,-99.99,,,-99.99,,2013-02-07 09:52:00,
2013-02-07 03:01:00,39.0,30.0,29.99,WNW,299,0.0,-999.0,70,-99.99,,,-99.99,,2013-02-07 10:01:00,
2013-02-07 03:11:00,39.0,30.0,29.99,WNW,299,0.0,-999.0,70,-99.99,,,-99.99,,2013-02-07 10:11:00,
2013-02-07 03:22:00,38.0,29.0,29.99,WNW,299,0.0,-999.0,71,-99.99,,,-99.99,,2013-02-07 10:22:00,
2013-02-07 03:31:00,37.0,29.0,29.99,WNW,299,0.0,-999.0,72,-99.99,,,-99.99,,2013-02-07 10:31:00,
2013-02-07 03:41:00,37.0,29.0,29.99,WNW,299,0.0,-999.0,72,-99.99,,,-99.99,,2013-02-07 10:41:00,
2013-02-07 03:52:00,37.0,29.0,29.99,WNW,299,1.0,-999.0,74,-99.99,,,-99.99,,2013-02-07 10:52:00,
2013-02-07 04:01:00,36.0,29.0,29.99,WNW,299,0.0,-999.0,76,-99.99,,,-99.99,,2013-02-07 11:01:00,
2013-02-07 04:11:00,36.0,29.0,29.99,WNW,299,0.0,-999.0,76,-99.99,,,-99.99,,2013-02-07 11:11:00,
2013-02-07 04:22:00,36.0,30.0,29.98,WNW,299,1.0,-999.0,78,-99.99,,,-99.99,,2013-02-07 11:22:00,
2013-02-07 04:32:00,37.0,31.0,29.98,WNW,299,3.0,-999.0,78,-99.99,,,-99.99,,2013-02-07 11:32:00,
2013-02-07 04:43:00,37.0,31.0,29.98,WNW,299,3.0,-999.0,78,-99.99,,,-99.99,,2013-02-07 11:43:00,
2013-02-07 04:52:00,37.0,30.0,29.99,WNW,299,0.0,-999.0,77,-99.99,,,-99.99,,2013-02-07 11:52:00,
2013-02-07 05:01:00,38.0,31.0,29.99,WNW,299,0.0,-999.0,75,-99.99,,,-99.99,,2013-02-07 12:01:00,
2013-02-07 05:11:00,38.0,31.0,29.99,WNW,299,0.0,-999.0,75,-99.99,,,-99.99,,2013-02-07 12:11:00,
2013-02-07 05:21:00,38.0,30.0,29.99,WNW,299,0.0,-999.0,74,-99.99,,,-99.99,,2013-02-07 12:21:00,
2013-02-07 05:32:00,37.0,29.0,29.99,WNW,299,0.0,-999.0,73,-99.99,,,-99.99,,2013-02-07 12:32:00,
2013-02-07 05:41:00,37.0,29.0,29.99,WNW,299,0.0,-999.0,73,-99.99,,,-99.99,,2013-02-07 12:41:00,
2013-02-07 05:53:00,36.0,29.0,30.00,WNW,299,1.0,-999.0,74,-99.99,,,-99.99,,2013-02-07 12:53:00,
2013-02-07 06:02:00,35.0,28.0,30.00,WNW,299,0.0,-999.0,76,-99.99,,,-99.99,,2013-02-07 13:02:00,
2013-02-07 06:11:00,35.0,28.0,30.00,WNW,299,0.0,-999.0,76,-99.99,,,-99.99,,2013-02-07 13:11:00,
2013-02-07 06:21:00,35.0,28.0,30.00,WNW,299,0.0,-999.0,76,-99.99,,,-99.99,,2013-02-07 13:21:00,
2013-02-07 06:31:00,35.0,28.0,30.01,WNW,299,0.0,-999.0,76,-99.99,,,-99.99,,2013-02-07 13:31:00,
2013-02-07 06:41:00,35.0,28.0,30.01,WNW,299,0.0,-999.0,76,-99.99,,,-99.99,,2013-02-07 13:41:00,
2013-02-07 06:52:00,35.0,28.0,30.01,WNW,299,0.0,-999.0,76,-99.99,,,-99.99,,2013-02-07 13:52:00,
2013-02-07 07:01:00,34.0,27.0,30.01,WNW,299,0.0,-999.0,75,-99.99,,,-99.99,,2013-02-07 14:01:00,
2013-02-07 07:11:00,34.0,27.0,30.01,WNW,299,0.0,-999.0,75,-99.99,,,-99.99,,2013-02-07 14:11:00,
2013-02-07 07:21:00,34.0,27.0,30.01,WNW,299,1.0,-999.0,75,-99.99,,,-99.99,,2013-02-07 14:21:00,
2013-02-07 07:31:00,33.0,26.0,30.02,WNW,299,0.0,-999.0,76,-99.99,,,-99.99,,2013-02-07 14:31:00,
2013-02-07 07:41:00,33.0,26.0,30.02,WNW,299,0.0,-999.0,76,-99.99,,,-99.99,,2013-02-07 14:41:00,
2013-02-07 07:52:00,34.0,28.0,30.02,WNW,299,0.0,-999.0,78,-99.99,,,-99.99,,2013-02-07 14:52:00,
2013-02-07 08:01:00,36.0,30.0,30.03,WNW,299,0.0,-999.0,78,-99.99,,,-99.99,,2013-02-07 15:01:00,
2013-02-07 08:11:00,36.0,30.0,30.03,WNW,299,0.0,-999.0,78,-99.99,,,-99.99,,2013-02-07 15:11:00,
2013-02-07 08:21:00,39.0,31.0,30.03,WNW,299,0.0,-999.0,72,-99.99,,,-99.99,,2013-02-07 15:21:00,
2013-02-07 08:31:00,43.0,33.0,30.04,WNW,299,0.0,-999.0,67,-99.99,,,-99.99,,2013-02-07 15:31:00,
2013-02-07 08:41:00,43.0,33.0,30.04,WNW,299,0.0,-999.0,67,-99.99,,,-99.99,,2013-02-07 15:41:00,
2013-02-07 08:52:00,46.0,33.0,30.04,WNW,299,0.0,-999.0,60,-99.99,,,-99.99,,2013-02-07 15:52:00,
2013-02-07 09:01:00,47.0,33.0,30.04,WNW,299,0.0,-999.0,57,-99.99,,,-99.99,,2013-02-07 16:01:00,
2013-02-07 09:21:00,48.0,32.0,30.05,WNW,299,0.0,-999.0,54,-99.99,,,-99.99,,2013-02-07 16:21:00,
2013-02-07 09:31:00,50.0,34.0,30.05,WNW,299,0.0,-999.0,53,-99.99,,,-99.99,,2013-02-07 16:31:00,
2013-02-07 09:41:00,50.0,34.0,30.05,WNW,299,0.0,-999.0,53,-99.99,,,-99.99,,2013-02-07 16:41:00,
2013-02-07 09:52:00,51.0,33.0,30.05,WNW,299,0.0,-999.0,50,-99.99,,,-99.99,,2013-02-07 16:52:00,
2013-02-07 10:01:00,52.0,32.0,30.05,NW,304,0.0,-999.0,47,-99.99,,,-99.99,,2013-02-07 17:01:00,
2013-02-07 10:11:00,52.0,32.0,30.05,NW,304,0.0,-999.0,47,-99.99,,,-99.99,,2013-02-07 17:11:00,
2013-02-07 10:21:00,52.0,32.0,30.05,NW,304,0.0,-999.0,47,-99.99,,,-99.99,,2013-02-07 17:21:00,
2013-02-07 10:31:00,53.0,31.0,30.05,NW,317,0.0,-999.0,43,-99.99,,,-99.99,,2013-02-07 17:31:00,
2013-02-07 10:41:00,53.0,31.0,30.05,NW,317,0.0,-999.0,43,-99.99,,,-99.99,,2013-02-07 17:41:00,
2013-02-07 10:52:00,53.0,32.0,30.05,NW,317,0.0,-999.0,44,-99.99,,,-99.99,,2013-02-07 17:52:00,
2013-02-07 11:01:00,54.0,31.0,30.04,East,85,1.0,-999.0,42,-99.99,,,-99.99,,2013-02-07 18:01:00,
2013-02-07 11:11:00,54.0,31.0,30.04,East,85,1.0,-999.0,42,-99.99,,,-99.99,,2013-02-07 18:11:00,
2013-02-07 11:22:00,54.0,31.0,30.05,ENE,68,0.0,-999.0,41,-99.99,,,-99.99,,2013-02-07 18:22:00,
2013-02-07 11:31:00,55.0,31.0,30.04,East,95,2.0,-999.0,39,-99.99,,,-99.99,,2013-02-07 18:31:00,
2013-02-07 11:41:00,55.0,31.0,30.04,East,95,2.0,-999.0,39,-99.99,,,-99.99,,2013-02-07 18:41:00,
2013-02-07 11:52:00,55.0,31.0,30.04,East,92,2.0,-999.0,39,-99.99,,,-99.99,,2013-02-07 18:52:00,
2013-02-07 12:01:00,56.0,30.0,30.03,East,97,1.0,-999.0,37,-99.99,,,-99.99,,2013-02-07 19:01:00,
2013-02-07 12:11:00,56.0,30.0,30.03,East,97,1.0,-999.0,37,-99.99,,,-99.99,,2013-02-07 19:11:00,
2013-02-07 12:21:00,56.0,31.0,30.03,ESE,112,3.0,-999.0,38,-99.99,,,-99.99,,2013-02-07 19:21:00,
2013-02-07 12:31:00,56.0,31.0,30.03,ESE,112,3.0,-999.0,38,-99.99,,,-99.99,,2013-02-07 19:31:00,
2013-02-07 12:41:00,56.0,31.0,30.03,ESE,112,3.0,-999.0,38,-99.99,,,-99.99,,2013-02-07 19:41:00,
2013-02-07 12:52:00,56.0,31.0,30.03,ESE,112,3.0,-999.0,38,-99.99,,,-99.99,,2013-02-07 19:52:00,
2013-02-07 13:22:00,58.0,27.0,30.00,SE,144,3.0,-999.0,30,-99.99,,,-99.99,,2013-02-07 20:22:00,
2013-02-07 13:32:00,58.0,27.0,29.99,SE,127,2.0,-999.0,30,-99.99,,,-99.99,,2013-02-07 20:32:00,
2013-02-07 13:42:00,58.0,27.0,29.99,SE,127,2.0,-999.0,30,-99.99,,,-99.99,,2013-02-07 20:42:00,
2013-02-07 13:52:00,59.0,26.0,29.98,East,82,2.0,-999.0,28,-99.99,,,-99.99,,2013-02-07 20:52:00,
2013-02-07 14:01:00,59.0,25.0,29.97,ESE,113,3.0,-999.0,27,-99.99,,,-99.99,,2013-02-07 21:01:00,
2013-02-07 14:11:00,59.0,25.0,29.97,ESE,113,3.0,-999.0,27,-99.99,,,-99.99,,2013-02-07 21:11:00,
2013-02-07 14:21:00,60.0,26.0,29.97,ESE,113,4.0,-999.0,27,-99.99,,,-99.99,,2013-02-07 21:21:00,
2013-02-07 14:31:00,61.0,26.0,29.97,SE,132,3.0,-999.0,26,-99.99,,,-99.99,,2013-02-07 21:31:00,
2013-02-07 14:41:00,61.0,26.0,29.97,SE,132,3.0,-999.0,26,-99.99,,,-99.99,,2013-02-07 21:41:00,
2013-02-07 14:52:00,61.0,23.0,29.96,SSE,148,3.0,-999.0,23,-99.99,,,-99.99,,2013-02-07 21:52:00,
2013-02-07 15:01:00,62.0,25.0,29.96,ESE,114,3.0,-999.0,24,-99.99,,,-99.99,,2013-02-07 22:01:00,
2013-02-07 15:11:00,62.0,25.0,29.96,ESE,114,3.0,-999.0,24,-99.99,,,-99.99,,2013-02-07 22:11:00,
2013-02-07 15:21:00,62.0,24.0,29.95,SE,126,4.0,-999.0,23,-99.99,,,-99.99,,2013-02-07 22:21:00,
2013-02-07 15:31:00,62.0,24.0,29.95,ESE,112,3.0,-999.0,23,-99.99,,,-99.99,,2013-02-07 22:31:00,
2013-02-07 15:42:00,62.0,24.0,29.95,ESE,112,3.0,-999.0,23,-99.99,,,-99.99,,2013-02-07 22:42:00,
2013-02-07 15:52:00,63.0,24.0,29.95,SE,138,5.0,-999.0,22,-99.99,,,-99.99,,2013-02-07 22:52:00,
2013-02-07 16:01:00,63.0,24.0,29.95,SE,136,5.0,-999.0,22,-99.99,,,-99.99,,2013-02-07 23:01:00,
2013-02-07 16:11:00,63.0,24.0,29.95,SE,136,5.0,-999.0,22,-99.99,,,-99.99,,2013-02-07 23:11:00,
2013-02-07 16:21:00,62.0,23.0,29.95,SE,134,3.0,-999.0,22,-99.99,,,-99.99,,2013-02-07 23:21:00,
2013-02-07 16:31:00,63.0,22.0,29.95,ESE,121,4.0,-999.0,21,-99.99,,,-99.99,,2013-02-07 23:31:00,
2013-02-07 16:41:00,63.0,22.0,29.95,ESE,121,4.0,-999.0,21,-99.99,,,-99.99,,2013-02-07 23:41:00,
2013-02-07 16:52:00,62.0,22.0,29.95,ESE,115,1.0,-999.0,21,-99.99,,,-99.99,,2013-02-07 23:52:00,
2013-02-07 17:01:00,62.0,22.0,29.95,ESE,117,1.0,-999.0,21,-99.99,,,-99.99,,2013-02-08 00:01:00,
2013-02-07 17:11:00,62.0,22.0,29.95,ESE,117,1.0,-999.0,21,-99.99,,,-99.99,,2013-02-08 00:11:00,
2013-02-07 17:21:00,62.0,20.0,29.95,ESE,121,0.0,-999.0,20,-99.99,,,-99.99,,2013-02-08 00:21:00,
2013-02-07 17:31:00,62.0,22.0,29.95,ESE,121,0.0,-999.0,21,-99.99,,,-99.99,,2013-02-08 00:31:00,
2013-02-07 17:41:00,62.0,22.0,29.95,ESE,121,0.0,-999.0,21,-99.99,,,-99.99,,2013-02-08 00:41:00,
2013-02-07 17:52:00,61.0,24.0,29.95,ESE,121,0.0,-999.0,24,-99.99,,,-99.99,,2013-02-08 00:52:00,
2013-02-07 18:01:00,61.0,24.0,29.95,ESE,121,0.0,-999.0,24,-99.99,,,-99.99,,2013-02-08 01:01:00,
2013-02-07 18:11:00,61.0,24.0,29.95,ESE,121,0.0,-999.0,24,-99.99,,,-99.99,,2013-02-08 01:11:00,
2013-02-07 18:21:00,57.0,25.0,29.95,ESE,121,0.0,-999.0,29,-99.99,,,-99.99,,2013-02-08 01:21:00,
2013-02-07 18:31:00,55.0,26.0,29.95,ESE,121,0.0,-999.0,33,-99.99,,,-99.99,,2013-02-08 01:31:00,
2013-02-07 18:42:00,55.0,26.0,29.95,ESE,121,0.0,-999.0,33,-99.99,,,-99.99,,2013-02-08 01:42:00,
2013-02-07 18:51:00,52.0,27.0,29.96,ESE,121,0.0,-999.0,37,-99.99,,,-99.99,,2013-02-08 01:51:00,
2013-02-07 19:01:00,51.0,24.0,29.96,SW,236,2.0,-999.0,35,-99.99,,,-99.99,,2013-02-08 02:01:00,
2013-02-07 19:11:00,51.0,24.0,29.96,SW,236,2.0,-999.0,35,-99.99,,,-99.99,,2013-02-08 02:11:00,
2013-02-07 19:21:00,51.0,23.0,29.95,WSW,246,2.0,-999.0,33,-99.99,,,-99.99,,2013-02-08 02:21:00,
2013-02-07 19:31:00,51.0,22.0,29.96,WSW,246,2.0,-999.0,32,-99.99,,,-99.99,,2013-02-08 02:31:00,
2013-02-07 19:42:00,51.0,22.0,29.96,WSW,246,2.0,-999.0,32,-99.99,,,-99.99,,2013-02-08 02:42:00,
2013-02-07 19:52:00,51.0,21.0,29.96,WSW,252,3.0,-999.0,31,-99.99,,,-99.99,,2013-02-08 02:52:00,
2013-02-07 20:01:00,50.0,21.0,29.96,WSW,252,0.0,-999.0,32,-99.99,,,-99.99,,2013-02-08 03:01:00,
2013-02-07 20:11:00,50.0,21.0,29.96,WSW,252,0.0,-999.0,32,-99.99,,,-99.99,,2013-02-08 03:11:00,
2013-02-07 20:22:00,50.0,22.0,29.96,WSW,252,0.0,-999.0,33,-99.99,,,-99.99,,2013-02-08 03:22:00,
2013-02-07 20:31:00,50.0,21.0,29.96,WSW,252,0.0,-999.0,32,-99.99,,,-99.99,,2013-02-08 03:31:00,
2013-02-07 20:41:00,50.0,21.0,29.96,WSW,252,0.0,-999.0,32,-99.99,,,-99.99,,2013-02-08 03:41:00,
2013-02-07 20:52:00,50.0,21.0,29.96,WSW,252,2.0,-999.0,32,-99.99,,,-99.99,,2013-02-08 03:52:00,
2013-02-07 21:01:00,50.0,22.0,29.96,WSW,253,3.0,-999.0,33,-99.99,,,-99.99,,2013-02-08 04:01:00,
2013-02-07 21:11:00,50.0,22.0,29.96,WSW,253,3.0,-999.0,33,-99.99,,,-99.99,,2013-02-08 04:11:00,
2013-02-07 21:21:00,49.0,23.0,29.96,SE,128,0.0,-999.0,36,-99.99,,,-99.99,,2013-02-08 04:21:00,
2013-02-07 21:31:00,48.0,24.0,29.96,SE,128,0.0,-999.0,38,-99.99,,,-99.99,,2013-02-08 04:31:00,
2013-02-07 21:41:00,48.0,24.0,29.96,SE,128,0.0,-999.0,38,-99.99,,,-99.99,,2013-02-08 04:41:00,
2013-02-07 21:52:00,47.0,24.0,29.96,SE,128,1.0,-999.0,40,-99.99,,,-99.99,,2013-02-08 04:52:00,
2013-02-07 22:01:00,45.0,24.0,29.96,SE,142,3.0,-999.0,43,-99.99,,,-99.99,,2013-02-08 05:01:00,
2013-02-07 22:11:00,45.0,24.0,29.96,SE,142,3.0,-999.0,43,-99.99,,,-99.99,,2013-02-08 05:11:00,
2013-02-07 22:22:00,45.0,24.0,29.95,SE,141,0.0,-999.0,44,-99.99,,,-99.99,,2013-02-08 05:22:00,
2013-02-07 22:31:00,44.0,25.0,29.95,SE,142,0.0,-999.0,47,-99.99,,,-99.99,,2013-02-08 05:31:00,
2013-02-07 22:41:00,44.0,25.0,29.95,SE,142,0.0,-999.0,47,-99.99,,,-99.99,,2013-02-08 05:41:00,
2013-02-07 22:52:00,42.0,24.0,29.95,SE,142,0.0,-999.0,49,-99.99,,,-99.99,,2013-02-08 05:52:00,
2013-02-07 23:01:00,41.0,24.0,29.95,SE,142,0.0,-999.0,51,-99.99,,,-99.99,,2013-02-08 06:01:00,
2013-02-07 23:11:00,41.0,24.0,29.95,SE,142,0.0,-999.0,51,-99.99,,,-99.99,,2013-02-08 06:11:00,
2013-02-07 23:21:00,40.0,25.0,29.94,SE,142,0.0,-999.0,54,-99.99,,,-99.99,,2013-02-08 06:21:00,
2013-02-07 23:31:00,39.0,25.0,29.94,SE,142,0.0,-999.0,56,-99.99,,,-99.99,,2013-02-08 06:31:00,
2013-02-07 23:41:00,39.0,25.0,29.94,SE,142,0.0,-999.0,56,-99.99,,,-99.99,,2013-02-08 06:41:00,
2013-02-07 23:52:00,39.0,25.0,29.94,SE,142,2.0,-999.0,56,-99.99,,,-99.99,,2013-02-08 06:52:00,